createdAt,value
2022-08-23T00:00:19.716Z,84.52
2022-08-23T00:01:19.736Z,84.43
2022-08-23T00:02:23.854Z,85.00
2022-08-23T00:03:19.841Z,84.52
2022-08-23T00:04:19.842Z,84.62
2022-08-23T00:05:19.792Z,84.43
2022-08-23T00:06:19.811Z,85.00
2022-08-23T00:07:19.824Z,84.91
2022-08-23T00:08:19.837Z,85.48
2022-08-23T00:09:19.853Z,85.38
2022-08-23T00:10:19.867Z,85.48
2022-08-23T00:11:19.885Z,84.81
2022-08-23T00:12:19.896Z,85.10
2022-08-23T00:13:19.913Z,84.62
2022-08-23T00:14:19.931Z,84.81
2022-08-23T00:15:20.048Z,84.91
2022-08-23T00:16:19.958Z,84.91
2022-08-23T00:17:34.508Z,84.52
2022-08-23T00:18:19.993Z,84.33
2022-08-23T00:19:20.003Z,84.62
2022-08-23T00:20:20.016Z,83.95
2022-08-23T00:21:20.030Z,83.86
2022-08-23T00:22:20.049Z,84.33
2022-08-23T00:23:20.063Z,83.76
2022-08-23T00:24:20.075Z,83.95
2022-08-23T00:25:20.094Z,84.05
2022-08-23T00:26:20.105Z,84.62
2022-08-23T00:27:20.127Z,85.10
2022-08-23T00:28:20.141Z,85.29
2022-08-23T00:29:20.169Z,85.29
2022-08-23T00:30:20.169Z,85.48
2022-08-23T00:31:20.189Z,85.10
2022-08-23T00:32:20.197Z,85.58
2022-08-23T00:33:20.213Z,85.58
2022-08-23T00:34:20.227Z,85.58
2022-08-23T00:35:26.441Z,85.96
2022-08-23T00:36:20.257Z,85.67
2022-08-23T00:37:20.272Z,85.25
2022-08-23T00:38:32.322Z,85.38
2022-08-23T00:39:20.302Z,85.48
2022-08-23T00:40:20.433Z,85.58
2022-08-23T00:41:20.335Z,85.48
2022-08-23T00:42:20.348Z,85.44
2022-08-23T00:43:20.371Z,85.19
2022-08-23T00:44:20.394Z,84.86
2022-08-23T00:45:20.392Z,85.38
2022-08-23T00:46:20.413Z,85.44
2022-08-23T00:47:20.427Z,85.38
2022-08-23T00:48:20.440Z,85.29
2022-08-23T00:49:20.449Z,85.48
2022-08-23T00:50:23.666Z,85.67
2022-08-23T00:51:20.482Z,85.72
2022-08-23T00:52:20.497Z,86.49
2022-08-23T00:53:20.512Z,87.06
2022-08-23T00:54:20.524Z,87.06
2022-08-23T00:55:20.542Z,87.54
2022-08-23T00:56:20.559Z,87.44
2022-08-23T00:57:20.569Z,87.54
2022-08-23T00:58:20.589Z,87.92
2022-08-23T00:59:20.604Z,88.20
2022-08-23T01:00:20.617Z,87.92
2022-08-23T01:01:20.696Z,88.11
2022-08-23T01:02:20.682Z,87.92
2022-08-23T01:03:20.727Z,87.92
2022-08-23T01:04:20.674Z,87.35
2022-08-23T01:05:20.688Z,87.73
2022-08-23T01:06:20.705Z,87.25
2022-08-23T01:07:20.722Z,87.25
2022-08-23T01:08:20.737Z,87.54
2022-08-23T01:09:20.758Z,87.15
2022-08-23T01:10:21.055Z,87.73
2022-08-23T01:11:20.779Z,88.20
2022-08-23T01:12:31.098Z,88.40
2022-08-23T01:13:20.808Z,88.20
2022-08-23T01:14:20.825Z,88.01
2022-08-23T01:15:20.836Z,88.01
2022-08-23T01:16:20.854Z,88.40
2022-08-23T01:17:20.869Z,88.20
2022-08-23T01:18:20.894Z,88.20
2022-08-23T01:19:20.893Z,88.20
2022-08-23T01:20:20.910Z,88.49
2022-08-23T01:21:20.931Z,88.59
2022-08-23T01:22:20.939Z,88.59
2022-08-23T01:23:20.955Z,88.11
2022-08-23T01:24:42.604Z,88.01
2022-08-23T01:25:20.982Z,88.01
2022-08-23T01:26:22.118Z,87.92
2022-08-23T01:27:21.013Z,87.73
2022-08-23T01:28:21.029Z,87.63
2022-08-23T01:29:21.047Z,87.54
2022-08-23T01:30:21.067Z,87.63
2022-08-23T01:31:21.098Z,88.01
2022-08-23T01:32:21.102Z,88.59
2022-08-23T01:33:21.109Z,87.92
2022-08-23T01:34:21.117Z,88.49
2022-08-23T01:36:21.142Z,88.59
2022-08-23T01:37:21.159Z,88.40
2022-08-23T01:38:21.175Z,88.11
2022-08-23T01:39:21.189Z,88.59
2022-08-23T01:40:21.336Z,87.92
2022-08-23T01:41:21.218Z,88.20
2022-08-23T01:42:21.235Z,88.20
2022-08-23T01:43:21.245Z,88.11
2022-08-23T01:44:21.258Z,88.59
2022-08-23T01:45:21.293Z,88.40
2022-08-23T01:46:21.290Z,88.40
2022-08-23T01:47:21.303Z,88.49
2022-08-23T01:48:21.322Z,88.49
2022-08-23T01:49:21.336Z,88.49
2022-08-23T01:50:21.350Z,88.11
2022-08-23T01:51:21.364Z,88.59
2022-08-23T01:52:21.382Z,88.49
2022-08-23T01:53:21.393Z,88.49
2022-08-23T01:54:21.408Z,88.11
2022-08-23T01:55:21.423Z,88.11
2022-08-23T01:56:38.328Z,88.11
2022-08-23T01:57:21.451Z,87.63
2022-08-23T01:58:21.464Z,87.73
2022-08-23T01:59:21.484Z,88.11
2022-08-23T02:00:21.497Z,87.54
2022-08-23T02:01:21.570Z,87.73
2022-08-23T02:02:21.527Z,87.63
2022-08-23T02:03:21.540Z,87.73
2022-08-23T02:04:21.553Z,87.63
2022-08-23T02:05:21.567Z,87.73
2022-08-23T02:06:21.585Z,87.54
2022-08-23T02:07:21.597Z,87.82
2022-08-23T02:08:21.610Z,87.82
2022-08-23T02:09:21.627Z,88.11
2022-08-23T02:10:21.639Z,88.01
2022-08-23T02:11:21.657Z,88.11
2022-08-23T02:12:21.672Z,87.92
2022-08-23T02:13:21.686Z,87.92
2022-08-23T02:14:21.697Z,88.30
2022-08-23T02:15:21.716Z,88.20
2022-08-23T02:16:21.734Z,88.49
2022-08-23T02:17:21.743Z,88.49
2022-08-23T02:18:21.760Z,89.02
2022-08-23T02:19:21.773Z,88.64
2022-08-23T02:20:21.787Z,88.68
2022-08-23T02:21:21.799Z,88.45
2022-08-23T02:22:21.820Z,88.59
2022-08-23T02:23:21.849Z,88.11
2022-08-23T02:24:21.852Z,88.40
2022-08-23T02:25:21.858Z,88.11
2022-08-23T02:26:21.876Z,88.30
2022-08-23T02:27:21.893Z,88.59
2022-08-23T02:28:21.904Z,88.40
2022-08-23T02:29:21.919Z,88.49
2022-08-23T02:30:21.938Z,88.30
2022-08-23T02:31:21.962Z,88.45
2022-08-23T02:32:21.965Z,88.54
2022-08-23T02:33:21.978Z,88.49
2022-08-23T02:34:21.995Z,88.40
2022-08-23T02:35:22.008Z,88.83
2022-08-23T02:37:22.036Z,89.12
2022-08-23T02:38:22.056Z,89.40
2022-08-23T02:39:22.066Z,89.40
2022-08-23T02:40:22.162Z,89.50
2022-08-23T02:41:22.092Z,89.50
2022-08-23T02:42:22.111Z,89.12
2022-08-23T02:43:22.136Z,89.12
2022-08-23T02:44:22.143Z,89.12
2022-08-23T02:45:22.154Z,89.21
2022-08-23T02:46:22.167Z,88.64
2022-08-23T02:47:22.183Z,88.83
2022-08-23T02:48:22.197Z,88.54
2022-08-23T02:49:22.211Z,88.83
2022-08-23T02:50:22.226Z,88.83
2022-08-23T02:51:22.243Z,88.73
2022-08-23T02:52:22.257Z,88.73
2022-08-23T02:53:22.274Z,88.73
2022-08-23T02:54:22.287Z,89.59
2022-08-23T02:55:22.296Z,89.50
2022-08-23T02:56:22.314Z,89.40
2022-08-23T02:57:22.327Z,89.21
2022-08-23T02:58:22.342Z,88.64
2022-08-23T02:59:22.358Z,89.02
2022-08-23T03:00:22.371Z,89.40
2022-08-23T03:01:22.390Z,89.12
2022-08-23T03:02:22.480Z,89.40
2022-08-23T03:03:22.691Z,89.31
2022-08-23T03:04:22.427Z,89.21
2022-08-23T03:05:22.441Z,89.88
2022-08-23T03:06:25.660Z,89.69
2022-08-23T03:07:22.472Z,89.69
2022-08-23T03:08:22.496Z,89.97
2022-08-23T03:09:22.501Z,89.97
2022-08-23T03:10:22.517Z,89.97
2022-08-23T03:11:22.540Z,89.88
2022-08-23T03:12:22.549Z,90.73
2022-08-23T03:13:22.560Z,90.26
2022-08-23T03:14:22.576Z,90.55
2022-08-23T03:15:22.594Z,90.36
2022-08-23T03:16:22.603Z,89.88
2022-08-23T03:17:22.624Z,89.88
2022-08-23T03:18:22.630Z,89.78
2022-08-23T03:19:22.646Z,89.88
2022-08-23T03:20:22.689Z,89.78
2022-08-23T03:21:22.681Z,89.88
2022-08-23T03:22:22.688Z,90.36
2022-08-23T03:23:22.708Z,90.17
2022-08-23T03:24:22.719Z,90.55
2022-08-23T03:25:22.747Z,89.78
2022-08-23T03:26:22.848Z,90.36
2022-08-23T03:27:22.766Z,90.26
2022-08-23T03:28:22.773Z,90.26
2022-08-23T03:29:22.793Z,90.17
2022-08-23T03:30:22.807Z,90.55
2022-08-23T03:31:22.819Z,91.02
2022-08-23T03:32:22.836Z,90.83
2022-08-23T03:33:22.847Z,91.41
2022-08-23T03:34:22.863Z,91.69
2022-08-23T03:35:22.882Z,91.50
2022-08-23T03:36:28.055Z,92.36
2022-08-23T03:37:22.909Z,92.26
2022-08-23T03:38:22.919Z,92.03
2022-08-23T03:39:22.937Z,92.03
2022-08-23T03:40:23.018Z,92.41
2022-08-23T03:41:22.966Z,92.60
2022-08-23T03:42:24.029Z,92.50
2022-08-23T03:43:22.995Z,92.69
2022-08-23T03:44:23.008Z,93.17
2022-08-23T03:45:23.020Z,93.36
2022-08-23T03:46:23.073Z,93.17
2022-08-23T03:47:23.828Z,92.93
2022-08-23T03:48:23.063Z,92.32
2022-08-23T03:49:23.079Z,91.83
2022-08-23T03:50:23.092Z,92.22
2022-08-23T03:51:23.103Z,92.03
2022-08-23T03:52:23.123Z,91.93
2022-08-23T03:53:23.134Z,92.17
2022-08-23T03:54:23.147Z,93.17
2022-08-23T03:55:23.168Z,92.93
2022-08-23T03:56:23.178Z,92.60
2022-08-23T03:57:23.191Z,93.36
2022-08-23T03:58:23.205Z,94.03
2022-08-23T03:59:23.222Z,93.55
2022-08-23T04:00:23.239Z,93.36
2022-08-23T04:01:27.902Z,93.46
2022-08-23T04:02:23.261Z,93.17
2022-08-23T04:03:23.255Z,93.46
2022-08-23T04:04:23.393Z,93.36
2022-08-23T04:05:23.302Z,93.36
2022-08-23T04:06:23.322Z,93.27
2022-08-23T04:07:23.337Z,93.36
2022-08-23T04:08:31.915Z,93.36
2022-08-23T04:09:23.359Z,93.36
2022-08-23T04:10:23.371Z,93.36
2022-08-23T04:11:23.392Z,93.65
2022-08-23T04:12:23.402Z,93.74
2022-08-23T04:13:23.418Z,92.88
2022-08-23T04:14:23.431Z,92.88
2022-08-23T04:15:23.445Z,92.55
2022-08-23T04:16:23.468Z,92.98
2022-08-23T04:17:23.473Z,92.69
2022-08-23T04:18:23.485Z,92.69
2022-08-23T04:19:23.498Z,93.36
2022-08-23T04:20:23.523Z,92.88
2022-08-23T04:21:23.533Z,93.17
2022-08-23T04:22:23.544Z,93.17
2022-08-23T04:23:23.578Z,92.79
2022-08-23T04:24:23.571Z,92.41
2022-08-23T04:25:34.944Z,92.50
2022-08-23T04:26:26.152Z,92.03
2022-08-23T04:27:23.617Z,91.83
2022-08-23T04:28:23.628Z,92.32
2022-08-23T04:29:34.431Z,92.03
2022-08-23T04:30:23.678Z,91.55
2022-08-23T04:31:23.674Z,91.83
2022-08-23T04:32:28.161Z,91.50
2022-08-23T04:33:23.696Z,91.88
2022-08-23T04:34:23.711Z,91.46
2022-08-23T04:35:23.725Z,92.12
2022-08-23T04:36:23.746Z,92.22
2022-08-23T04:37:23.757Z,92.36
2022-08-23T04:38:24.941Z,92.32
2022-08-23T04:39:23.785Z,92.50
2022-08-23T04:40:23.961Z,92.03
2022-08-23T04:41:23.825Z,92.41
2022-08-23T04:42:23.827Z,92.12
2022-08-23T04:43:23.845Z,92.03
2022-08-23T04:44:23.860Z,92.12
2022-08-23T04:45:23.873Z,92.36
2022-08-23T04:46:23.882Z,92.03
2022-08-23T04:47:23.900Z,92.32
2022-08-23T04:48:23.911Z,92.79
2022-08-23T04:49:24.589Z,93.17
2022-08-23T04:50:23.944Z,92.55
2022-08-23T04:51:23.954Z,92.41
2022-08-23T04:52:23.971Z,93.17
2022-08-23T04:53:23.985Z,92.88
2022-08-23T04:54:23.995Z,92.50
2022-08-23T04:55:24.013Z,92.41
2022-08-23T04:56:24.022Z,92.41
2022-08-23T04:57:24.036Z,92.69
2022-08-23T04:58:24.053Z,92.88
2022-08-23T04:59:24.064Z,92.98
2022-08-23T05:00:27.149Z,92.32
2022-08-23T05:01:24.151Z,92.50
2022-08-23T05:02:24.111Z,92.88
2022-08-23T05:03:24.127Z,92.98
2022-08-23T05:04:24.143Z,92.98
2022-08-23T05:05:24.154Z,93.55
2022-08-23T05:06:24.172Z,93.46
2022-08-23T05:07:41.490Z,93.17
2022-08-23T05:08:24.197Z,93.08
2022-08-23T05:09:24.208Z,93.55
2022-08-23T05:10:24.222Z,93.36
2022-08-23T05:11:24.240Z,93.36
2022-08-23T05:12:24.254Z,92.79
2022-08-23T05:13:24.263Z,93.55
2022-08-23T05:14:24.285Z,93.65
2022-08-23T05:15:24.296Z,93.27
2022-08-23T05:16:24.310Z,94.03
2022-08-23T05:17:24.322Z,93.08
2022-08-23T05:18:24.338Z,93.08
2022-08-23T05:19:24.348Z,92.69
2022-08-23T05:20:24.364Z,92.93
2022-08-23T05:21:24.379Z,92.98
2022-08-23T05:22:24.392Z,92.41
2022-08-23T05:23:31.726Z,92.69
2022-08-23T05:24:24.421Z,93.12
2022-08-23T05:25:24.434Z,92.88
2022-08-23T05:26:24.449Z,93.08
2022-08-23T05:27:24.463Z,93.31
2022-08-23T05:28:24.481Z,93.27
2022-08-23T05:29:24.489Z,93.36
2022-08-23T05:30:24.504Z,92.98
2022-08-23T05:31:24.524Z,92.74
2022-08-23T05:32:24.547Z,92.32
2022-08-23T05:33:24.550Z,93.17
2022-08-23T05:34:24.564Z,93.55
2022-08-23T05:35:24.579Z,93.02
2022-08-23T05:36:24.590Z,93.17
2022-08-23T05:37:24.609Z,93.60
2022-08-23T05:38:24.619Z,93.65
2022-08-23T05:39:32.751Z,93.17
2022-08-23T05:40:24.746Z,94.12
2022-08-23T05:41:33.373Z,93.84
2022-08-23T05:42:24.680Z,93.84
2022-08-23T05:43:24.689Z,93.65
2022-08-23T05:44:24.719Z,94.22
2022-08-23T05:45:24.746Z,93.93
2022-08-23T05:46:28.442Z,93.93
2022-08-23T05:47:25.080Z,93.36
2022-08-23T05:48:24.760Z,93.84
2022-08-23T05:49:24.774Z,94.12
2022-08-23T05:50:24.792Z,94.22
2022-08-23T05:51:24.805Z,93.93
2022-08-23T05:52:24.821Z,93.55
2022-08-23T05:53:24.835Z,93.46
2022-08-23T05:54:24.844Z,93.27
2022-08-23T05:55:27.713Z,93.12
2022-08-23T05:56:24.878Z,93.17
2022-08-23T05:57:24.889Z,93.46
2022-08-23T05:58:24.903Z,93.31
2022-08-23T05:59:24.915Z,93.36
2022-08-23T06:00:37.218Z,93.22
2022-08-23T06:01:24.972Z,92.83
2022-08-23T06:02:24.962Z,93.22
2022-08-23T06:03:24.972Z,93.41
2022-08-23T06:04:24.991Z,93.31
2022-08-23T06:05:24.997Z,93.02
2022-08-23T06:06:34.917Z,93.12
2022-08-23T06:07:25.028Z,92.83
2022-08-23T06:08:25.043Z,93.12
2022-08-23T06:09:25.058Z,93.12
2022-08-23T06:10:25.071Z,93.51
2022-08-23T06:11:25.097Z,93.22
2022-08-23T06:12:25.098Z,93.31
2022-08-23T06:13:25.114Z,93.79
2022-08-23T06:14:25.252Z,94.17
2022-08-23T06:15:25.140Z,93.79
2022-08-23T06:16:25.157Z,93.79
2022-08-23T06:17:25.171Z,93.79
2022-08-23T06:18:25.185Z,93.51
2022-08-23T06:19:25.202Z,93.51
2022-08-23T06:20:25.293Z,92.74
2022-08-23T06:21:25.230Z,92.60
2022-08-23T06:22:25.243Z,93.46
2022-08-23T06:23:25.261Z,93.55
2022-08-23T06:24:25.268Z,92.02
2022-08-23T06:25:25.294Z,92.79
2022-08-23T06:26:25.298Z,93.46
2022-08-23T06:27:25.313Z,91.64
2022-08-23T06:28:25.780Z,90.69
2022-08-23T06:29:25.397Z,91.16
2022-08-23T06:30:25.357Z,91.07
2022-08-23T06:31:25.423Z,90.78
2022-08-23T06:32:25.474Z,90.50
2022-08-23T06:33:25.424Z,89.92
2022-08-23T06:34:25.409Z,90.40
2022-08-23T06:35:33.297Z,91.36
2022-08-23T06:36:25.462Z,90.50
2022-08-23T06:37:25.454Z,91.93
2022-08-23T06:38:25.471Z,91.36
2022-08-23T06:39:25.481Z,90.97
2022-08-23T06:40:25.591Z,90.83
2022-08-23T06:41:25.512Z,90.16
2022-08-23T06:42:40.465Z,90.45
2022-08-23T06:43:25.543Z,90.35
2022-08-23T06:44:25.557Z,90.21
2022-08-23T06:45:33.758Z,90.35
2022-08-23T06:46:25.708Z,91.21
2022-08-23T06:47:25.601Z,90.25
2022-08-23T06:48:25.617Z,89.87
2022-08-23T06:49:25.625Z,89.97
2022-08-23T06:50:25.674Z,89.39
2022-08-23T06:51:26.578Z,89.11
2022-08-23T06:52:25.669Z,89.87
2022-08-23T06:53:25.682Z,90.45
2022-08-23T06:54:26.395Z,88.63
2022-08-23T06:55:25.714Z,88.54
2022-08-23T06:56:25.735Z,89.11
2022-08-23T06:57:25.742Z,89.01
2022-08-23T06:58:25.757Z,89.49
2022-08-23T06:59:25.772Z,89.92
2022-08-23T07:00:25.841Z,89.87
2022-08-23T07:01:44.599Z,89.44
2022-08-23T07:02:25.971Z,89.15
2022-08-23T07:03:25.827Z,88.20
2022-08-23T07:04:25.845Z,88.10
2022-08-23T07:05:25.856Z,86.96
2022-08-23T07:06:25.869Z,86.29
2022-08-23T07:07:39.595Z,86.24
2022-08-23T07:08:25.901Z,87.62
2022-08-23T07:09:25.918Z,87.39
2022-08-23T07:10:25.934Z,88.44
2022-08-23T07:11:25.950Z,88.01
2022-08-23T07:12:25.961Z,88.20
2022-08-23T07:13:25.976Z,88.20
2022-08-23T07:14:25.986Z,87.72
2022-08-23T07:15:26.003Z,87.91
2022-08-23T07:16:26.107Z,87.43
2022-08-23T07:17:26.035Z,87.00
2022-08-23T07:18:26.041Z,86.90
2022-08-23T07:19:29.243Z,87.57
2022-08-23T07:20:26.086Z,86.80
2022-08-23T07:21:26.088Z,85.94
2022-08-23T07:22:26.101Z,84.89
2022-08-23T07:23:26.118Z,84.61
2022-08-23T07:24:30.652Z,85.09
2022-08-23T07:25:26.146Z,84.80
2022-08-23T07:26:26.162Z,84.61
2022-08-23T07:27:26.178Z,84.23
2022-08-23T07:28:26.189Z,83.84
2022-08-23T07:29:26.205Z,84.03
2022-08-23T07:30:26.222Z,85.47
2022-08-23T07:31:26.257Z,83.75
2022-08-23T07:32:26.252Z,83.46
2022-08-23T07:33:26.263Z,82.07
2022-08-23T07:34:26.296Z,82.64
2022-08-23T07:35:26.306Z,82.03
2022-08-23T07:36:26.308Z,82.98
2022-08-23T07:37:26.322Z,82.41
2022-08-23T07:38:29.981Z,82.79
2022-08-23T07:39:26.359Z,82.79
2022-08-23T07:40:27.602Z,83.27
2022-08-23T07:41:26.380Z,82.89
2022-08-23T07:42:26.396Z,82.45
2022-08-23T07:43:26.412Z,81.93
2022-08-23T07:44:27.266Z,81.65
2022-08-23T07:45:26.437Z,81.78
2022-08-23T07:46:26.512Z,81.84
2022-08-23T07:47:26.468Z,82.17
2022-08-23T07:48:50.359Z,81.30
2022-08-23T07:49:29.323Z,81.40
2022-08-23T07:50:30.267Z,81.49
2022-08-23T07:51:26.527Z,81.59
2022-08-23T07:52:26.544Z,81.45
2022-08-23T07:53:37.726Z,81.78
2022-08-23T07:54:26.571Z,81.11
2022-08-23T07:55:26.583Z,80.63
2022-08-23T07:56:26.608Z,81.78
2022-08-23T07:57:26.666Z,80.29
2022-08-23T07:58:26.635Z,80.19
2022-08-23T07:59:27.992Z,79.68
2022-08-23T08:00:26.662Z,80.48
2022-08-23T08:01:26.729Z,80.44
2022-08-23T08:02:26.767Z,80.54
2022-08-23T08:03:26.709Z,81.21
2022-08-23T08:04:26.723Z,81.78
2022-08-23T08:05:26.739Z,81.40
2022-08-23T08:06:26.753Z,80.38
2022-08-23T08:07:26.768Z,80.10
2022-08-23T08:08:26.782Z,79.52
2022-08-23T08:09:26.797Z,79.62
2022-08-23T08:10:26.819Z,77.94
2022-08-23T08:11:29.675Z,77.36
2022-08-23T08:12:26.844Z,76.98
2022-08-23T08:13:26.856Z,76.60
2022-08-23T08:14:26.875Z,75.54
2022-08-23T08:15:27.330Z,75.16
2022-08-23T08:16:26.968Z,76.21
2022-08-23T08:17:27.678Z,75.93
2022-08-23T08:18:26.931Z,75.79
2022-08-23T08:19:26.948Z,76.46
2022-08-23T08:20:26.961Z,76.94
2022-08-23T08:21:26.976Z,76.69
2022-08-23T08:22:26.994Z,76.31
2022-08-23T08:23:27.011Z,77.08
2022-08-23T08:24:27.023Z,76.40
2022-08-23T08:25:27.038Z,76.50
2022-08-23T08:26:27.058Z,76.79
2022-08-23T08:27:27.119Z,76.98
2022-08-23T08:28:27.090Z,77.50
2022-08-23T08:29:27.099Z,75.87
2022-08-23T08:30:27.126Z,77.02
2022-08-23T08:31:27.443Z,76.15
2022-08-23T08:32:27.149Z,75.29
2022-08-23T08:33:30.731Z,76.10
2022-08-23T08:34:27.177Z,75.52
2022-08-23T08:35:27.191Z,75.81
2022-08-23T08:36:27.208Z,75.14
2022-08-23T08:37:27.358Z,75.39
2022-08-23T08:38:28.877Z,75.77
2022-08-23T08:39:27.255Z,75.96
2022-08-23T08:40:27.296Z,75.96
2022-08-23T08:41:27.291Z,75.81
2022-08-23T08:42:27.301Z,75.90
2022-08-23T08:43:27.318Z,76.42
2022-08-23T08:44:27.439Z,74.57
2022-08-23T08:45:27.356Z,75.27
2022-08-23T08:46:27.394Z,74.69
2022-08-23T08:47:27.794Z,75.18
2022-08-23T08:48:27.399Z,74.02
2022-08-23T08:49:27.417Z,73.55
2022-08-23T08:50:27.434Z,74.89
2022-08-23T08:51:27.446Z,74.31
2022-08-23T08:52:32.015Z,74.02
2022-08-23T08:53:27.482Z,73.65
2022-08-23T08:54:27.500Z,72.97
2022-08-23T08:55:27.513Z,73.65
2022-08-23T08:56:32.448Z,73.74
2022-08-23T08:57:27.923Z,73.49
2022-08-23T08:58:27.559Z,72.63
2022-08-23T08:59:27.577Z,72.43
2022-08-23T09:00:27.600Z,71.95
2022-08-23T09:01:27.651Z,73.30
2022-08-23T09:02:32.402Z,73.49
2022-08-23T09:03:27.721Z,73.14
2022-08-23T09:04:27.662Z,72.08
2022-08-23T09:05:27.689Z,71.03
2022-08-23T09:06:27.698Z,70.36
2022-08-23T09:07:31.136Z,69.40
2022-08-23T09:08:27.730Z,68.15
2022-08-23T09:09:27.744Z,70.07
2022-08-23T09:10:27.757Z,71.09
2022-08-23T09:11:27.779Z,71.57
2022-08-23T09:12:27.792Z,71.37
2022-08-23T09:13:27.811Z,71.95
2022-08-23T09:14:27.826Z,72.85
2022-08-23T09:15:27.843Z,71.37
2022-08-23T09:16:28.775Z,71.89
2022-08-23T09:17:27.874Z,71.41
2022-08-23T09:18:27.899Z,71.12
2022-08-23T09:19:27.914Z,71.41
2022-08-23T09:20:32.702Z,71.83
2022-08-23T09:21:28.528Z,70.52
2022-08-23T09:22:27.963Z,70.23
2022-08-23T09:23:27.979Z,69.37
2022-08-23T09:24:27.999Z,69.24
2022-08-23T09:25:28.016Z,70.42
2022-08-23T09:26:28.035Z,71.09
2022-08-23T09:27:28.056Z,72.33
2022-08-23T09:28:28.070Z,72.24
2022-08-23T09:29:28.079Z,72.24
2022-08-23T09:30:28.099Z,71.72
2022-08-23T09:31:28.142Z,72.63
2022-08-23T09:32:28.140Z,72.33
2022-08-23T09:33:28.154Z,72.05
2022-08-23T09:34:28.224Z,71.70
2022-08-23T09:35:28.193Z,71.51
2022-08-23T09:36:28.205Z,70.58
2022-08-23T09:37:28.224Z,70.14
2022-08-23T09:38:28.244Z,68.98
2022-08-23T09:39:30.644Z,68.12
2022-08-23T09:40:28.278Z,68.60
2022-08-23T09:41:28.298Z,66.77
2022-08-23T09:42:28.312Z,67.68
2022-08-23T09:43:28.326Z,66.80
2022-08-23T09:44:28.361Z,68.12
2022-08-23T09:45:33.147Z,69.26
2022-08-23T09:46:28.461Z,71.41
2022-08-23T09:47:28.402Z,69.91
2022-08-23T09:48:31.156Z,69.75
2022-08-23T09:49:28.437Z,67.93
2022-08-23T09:50:28.448Z,66.81
2022-08-23T09:51:28.467Z,67.32
2022-08-23T09:52:28.485Z,65.40
2022-08-23T09:53:28.502Z,63.86
2022-08-23T09:54:28.523Z,64.63
2022-08-23T09:55:28.538Z,65.78
2022-08-23T09:56:28.558Z,64.31
2022-08-23T09:57:28.572Z,66.00
2022-08-23T09:58:28.588Z,66.49
2022-08-23T09:59:28.607Z,67.54
2022-08-23T10:00:28.627Z,67.10
2022-08-23T10:01:28.755Z,66.61
2022-08-23T10:02:28.672Z,66.17
2022-08-23T10:03:28.681Z,64.73
2022-08-23T10:04:28.739Z,63.86
2022-08-23T10:05:28.717Z,64.22
2022-08-23T10:06:31.044Z,64.66
2022-08-23T10:07:28.757Z,66.23
2022-08-23T10:08:28.781Z,65.69
2022-08-23T10:09:28.794Z,64.47
2022-08-23T10:10:28.812Z,62.80
2022-08-23T10:11:28.821Z,63.67
2022-08-23T10:12:28.846Z,67.22
2022-08-23T10:13:28.863Z,67.35
2022-08-23T10:14:30.714Z,65.94
2022-08-23T10:15:33.005Z,64.31
2022-08-23T10:16:29.007Z,64.63
2022-08-23T10:17:28.935Z,63.18
2022-08-23T10:18:28.951Z,63.67
2022-08-23T10:19:28.969Z,63.70
2022-08-23T10:20:29.089Z,62.35
2022-08-23T10:21:29.009Z,62.35
2022-08-23T10:22:29.024Z,61.52
2022-08-23T10:23:29.044Z,60.55
2022-08-23T10:24:29.068Z,59.75
2022-08-23T10:25:29.080Z,59.85
2022-08-23T10:26:29.120Z,60.52
2022-08-23T10:27:29.112Z,60.52
2022-08-23T10:28:29.134Z,60.52
2022-08-23T10:29:29.154Z,61.46
2022-08-23T10:30:29.173Z,62.96
2022-08-23T10:31:29.253Z,62.93
2022-08-23T10:32:29.210Z,63.60
2022-08-23T10:33:29.230Z,63.64
2022-08-23T10:34:30.011Z,63.89
2022-08-23T10:35:29.265Z,61.71
2022-08-23T10:36:29.281Z,59.66
2022-08-23T10:37:29.298Z,60.33
2022-08-23T10:38:29.321Z,60.56
2022-08-23T10:39:29.437Z,62.19
2022-08-23T10:40:29.430Z,62.35
2022-08-23T10:41:29.371Z,63.28
2022-08-23T10:42:29.393Z,61.84
2022-08-23T10:43:29.407Z,62.26
2022-08-23T10:44:29.428Z,60.24
2022-08-23T10:45:29.452Z,60.72
2022-08-23T10:46:29.557Z,60.65
2022-08-23T10:47:29.484Z,59.97
2022-08-23T10:48:29.498Z,57.92
2022-08-23T10:49:29.518Z,59.91
2022-08-23T10:50:29.542Z,58.56
2022-08-23T10:51:31.657Z,57.92
2022-08-23T10:52:29.578Z,56.09
2022-08-23T10:53:29.597Z,55.60
2022-08-23T10:54:29.621Z,55.34
2022-08-23T10:55:29.628Z,53.09
2022-08-23T10:56:29.652Z,53.44
2022-08-23T10:57:29.668Z,51.87
2022-08-23T10:58:30.859Z,51.17
2022-08-23T10:59:29.709Z,50.98
2022-08-23T11:00:29.732Z,51.84
2022-08-23T11:01:29.825Z,52.83
2022-08-23T11:02:29.853Z,51.80
2022-08-23T11:03:29.787Z,52.01
2022-08-23T11:04:29.807Z,49.29
2022-08-23T11:05:29.821Z,48.90
2022-08-23T11:06:29.841Z,50.18
2022-08-23T11:07:29.863Z,49.39
2022-08-23T11:08:29.885Z,50.16
2022-08-23T11:09:29.906Z,50.81
2022-08-23T11:10:29.924Z,51.50
2022-08-23T11:11:29.948Z,52.56
2022-08-23T11:12:29.962Z,51.79
2022-08-23T11:13:29.985Z,52.37
2022-08-23T11:14:30.007Z,51.70
2022-08-23T11:15:30.099Z,51.92
2022-08-23T11:16:30.041Z,50.57
2022-08-23T11:17:30.062Z,51.07
2022-08-23T11:18:33.127Z,51.68
2022-08-23T11:19:30.102Z,51.12
2022-08-23T11:20:30.125Z,49.22
2022-08-23T11:21:30.142Z,48.79
2022-08-23T11:22:30.160Z,48.95
2022-08-23T11:23:30.193Z,49.99
2022-08-23T11:24:30.204Z,50.18
2022-08-23T11:25:30.225Z,50.49
2022-08-23T11:26:30.238Z,50.88
2022-08-23T11:27:30.262Z,52.55
2022-08-23T11:28:30.569Z,51.22
2022-08-23T11:29:30.305Z,50.28
2022-08-23T11:30:30.324Z,50.40
2022-08-23T11:31:30.342Z,49.63
2022-08-23T11:32:30.373Z,49.22
2022-08-23T11:33:30.382Z,50.59
2022-08-23T11:34:30.405Z,50.28
2022-08-23T11:35:30.422Z,51.10
2022-08-23T11:36:30.446Z,53.13
2022-08-23T11:37:30.466Z,54.09
2022-08-23T11:38:30.484Z,54.98
2022-08-23T11:39:30.509Z,53.61
2022-08-23T11:40:30.595Z,55.24
2022-08-23T11:41:30.548Z,55.05
2022-08-23T11:42:30.570Z,55.79
2022-08-23T11:43:30.604Z,56.33
2022-08-23T11:44:30.610Z,54.36
2022-08-23T11:45:30.626Z,52.81
2022-08-23T11:46:30.705Z,51.95
2022-08-23T11:47:30.771Z,52.04
2022-08-23T11:48:30.690Z,52.28
2022-08-23T11:49:30.714Z,53.34
2022-08-23T11:50:30.733Z,53.34
2022-08-23T11:51:30.755Z,53.73
2022-08-23T11:52:30.776Z,53.73
2022-08-23T11:53:30.820Z,53.51
2022-08-23T11:54:30.816Z,54.44
2022-08-23T11:55:30.837Z,55.09
2022-08-23T11:56:30.854Z,56.30
2022-08-23T11:57:30.879Z,55.27
2022-08-23T11:58:30.899Z,53.37
2022-08-23T11:59:31.468Z,53.01
2022-08-23T12:00:30.939Z,52.37
2022-08-23T12:01:30.964Z,54.62
2022-08-23T12:02:31.156Z,53.61
2022-08-23T12:03:31.087Z,54.96
2022-08-23T12:04:31.021Z,55.94
2022-08-23T12:05:31.043Z,55.70
2022-08-23T12:06:31.060Z,55.99
2022-08-23T12:07:31.084Z,55.31
2022-08-23T12:08:31.111Z,56.49
2022-08-23T12:09:31.129Z,55.96
2022-08-23T12:10:31.149Z,56.47
2022-08-23T12:11:31.172Z,55.77
2022-08-23T12:12:34.836Z,55.99
2022-08-23T12:13:31.210Z,55.78
2022-08-23T12:14:31.232Z,53.15
2022-08-23T12:15:31.275Z,53.83
2022-08-23T12:16:31.361Z,53.30
2022-08-23T12:17:33.968Z,50.98
2022-08-23T12:18:31.311Z,49.46
2022-08-23T12:19:31.332Z,49.15
2022-08-23T12:20:31.356Z,49.60
2022-08-23T12:21:31.375Z,49.19
2022-08-23T12:22:31.394Z,50.21
2022-08-23T12:23:31.419Z,51.22
2022-08-23T12:24:32.317Z,49.99
2022-08-23T12:25:31.461Z,48.16
2022-08-23T12:26:31.487Z,47.58
2022-08-23T12:27:31.498Z,47.58
2022-08-23T12:28:31.537Z,46.71
2022-08-23T12:29:31.542Z,46.78
2022-08-23T12:30:31.563Z,47.75
2022-08-23T12:31:31.687Z,47.19
2022-08-23T12:32:31.605Z,47.05
2022-08-23T12:33:31.625Z,46.88
2022-08-23T12:34:31.643Z,48.23
2022-08-23T12:35:31.669Z,47.72
2022-08-23T12:36:31.688Z,48.52
2022-08-23T12:37:31.711Z,47.36
2022-08-23T12:38:31.731Z,47.41
2022-08-23T12:39:31.752Z,46.25
2022-08-23T12:40:31.874Z,45.48
2022-08-23T12:41:31.796Z,45.38
2022-08-23T12:42:31.816Z,44.95
2022-08-23T12:43:31.838Z,45.55
2022-08-23T12:44:34.051Z,46.25
2022-08-23T12:45:31.885Z,46.56
2022-08-23T12:46:31.983Z,45.31
2022-08-23T12:47:31.922Z,45.52
2022-08-23T12:48:31.959Z,44.87
2022-08-23T12:49:31.969Z,43.85
2022-08-23T12:50:33.018Z,44.78
2022-08-23T12:51:32.005Z,46.56
2022-08-23T12:52:32.031Z,47.34
2022-08-23T12:53:32.054Z,47.85
2022-08-23T12:54:32.072Z,46.33